createdAt,value
2022-11-14T00:01:00.389Z,30.17
2022-11-14T00:03:27.396Z,26.80
2022-11-14T00:05:54.093Z,29.10
2022-11-14T00:08:25.155Z,34.42
2022-11-14T00:10:52.280Z,25.80
2022-11-14T00:13:20.484Z,26.25
2022-11-14T00:15:54.266Z,24.27
2022-11-14T00:18:21.308Z,24.95
2022-11-14T00:20:52.619Z,25.38
2022-11-14T00:23:20.951Z,30.30
2022-11-14T00:25:47.789Z,29.15
2022-11-14T00:28:14.733Z,30.85
2022-11-14T00:30:41.521Z,31.60
2022-11-14T00:33:08.270Z,29.70
2022-11-14T00:35:34.965Z,32.05
2022-11-14T00:38:01.709Z,32.38
2022-11-14T00:40:28.807Z,27.90
2022-11-14T00:42:55.589Z,29.60
2022-11-14T00:45:22.326Z,25.80
2022-11-14T00:47:49.039Z,31.83
2022-11-14T00:50:18.804Z,26.65
2022-11-14T00:52:45.569Z,28.55
2022-11-14T00:55:12.259Z,28.92
2022-11-14T00:57:38.939Z,29.88
2022-11-14T01:00:07.043Z,36.35
2022-11-14T01:02:33.868Z,32.13
2022-11-14T01:05:02.184Z,25.13
2022-11-14T01:07:29.374Z,24.50
2022-11-14T01:09:56.108Z,34.58
2022-11-14T01:12:22.935Z,28.50
2022-11-14T01:14:49.738Z,29.10
2022-11-14T01:17:16.546Z,29.98
2022-11-14T01:19:43.334Z,29.35
2022-11-14T01:22:10.048Z,24.48
2022-11-14T01:24:37.402Z,30.42
2022-11-14T01:27:04.168Z,27.60
2022-11-14T01:29:30.938Z,28.48
2022-11-14T01:31:57.681Z,25.92
2022-11-14T01:34:24.531Z,28.67
2022-11-14T01:36:51.222Z,27.38
2022-11-14T01:39:18.665Z,24.65
2022-11-14T01:41:45.404Z,27.50
2022-11-14T01:44:17.380Z,28.17
2022-11-14T01:46:48.448Z,27.02
2022-11-14T01:49:29.487Z,27.65
2022-11-14T01:52:09.519Z,30.35
2022-11-14T01:54:41.681Z,28.25
2022-11-14T01:57:10.455Z,28.48
2022-11-14T01:59:50.498Z,27.70
2022-11-14T02:02:21.397Z,27.75
2022-11-14T02:04:53.838Z,25.50
2022-11-14T02:07:20.789Z,26.63
2022-11-14T02:09:48.811Z,29.13
2022-11-14T02:12:18.146Z,25.02
2022-11-14T02:14:47.148Z,29.42
2022-11-14T02:17:28.998Z,29.67
2022-11-14T02:20:11.843Z,27.52
2022-11-14T02:22:40.529Z,28.20
2022-11-14T02:25:09.537Z,24.45
2022-11-14T02:27:39.104Z,25.23
2022-11-14T02:30:12.229Z,28.65
2022-11-14T02:35:25.724Z,27.23
2022-11-14T02:37:52.463Z,31.33
2022-11-14T02:40:19.345Z,29.75
2022-11-14T02:42:46.054Z,30.38
2022-11-14T02:45:14.216Z,27.65
2022-11-14T02:47:40.922Z,29.23
2022-11-14T02:50:07.997Z,27.35
2022-11-14T02:52:34.723Z,27.00
2022-11-14T02:55:01.584Z,28.10
2022-11-14T02:57:29.283Z,28.40
2022-11-14T02:59:56.165Z,34.50
2022-11-14T03:02:22.888Z,30.55
2022-11-14T03:04:49.752Z,36.35
2022-11-14T03:07:16.598Z,35.72
2022-11-14T03:09:43.361Z,35.40
2022-11-14T03:12:10.534Z,30.95
2022-11-14T03:14:38.187Z,28.65
2022-11-14T03:17:04.988Z,28.88
2022-11-14T03:19:31.911Z,34.38
2022-11-14T03:21:58.656Z,27.33
2022-11-14T03:24:25.520Z,30.08
2022-11-14T03:26:52.336Z,36.85
2022-11-14T03:29:19.150Z,30.33
2022-11-14T03:31:46.045Z,33.13
2022-11-14T03:34:13.025Z,31.85
2022-11-14T03:36:39.936Z,32.17
2022-11-14T03:39:07.009Z,32.60
2022-11-14T03:41:33.777Z,26.80
2022-11-14T03:44:00.607Z,28.27
2022-11-14T03:46:27.375Z,30.67
2022-11-14T03:48:54.219Z,28.58
2022-11-14T03:51:21.240Z,31.13
2022-11-14T03:53:47.994Z,29.92
2022-11-14T03:56:14.682Z,32.15
2022-11-14T03:58:41.456Z,32.35
2022-11-14T04:01:08.236Z,28.20
2022-11-14T04:03:35.010Z,35.80
2022-11-14T04:06:02.876Z,35.75
2022-11-14T04:08:30.097Z,41.22
2022-11-14T04:10:57.172Z,33.65
2022-11-14T04:13:24.020Z,38.85
2022-11-14T04:15:58.293Z,35.58
2022-11-14T04:18:26.453Z,41.95
2022-11-14T04:20:53.541Z,35.00
2022-11-14T04:23:20.552Z,37.83
2022-11-14T04:25:47.725Z,34.63
2022-11-14T04:28:14.582Z,36.38
2022-11-14T04:30:41.673Z,39.63
2022-11-14T04:33:08.479Z,35.58
2022-11-14T04:35:35.288Z,31.55
2022-11-14T04:38:02.138Z,33.78
2022-11-14T04:40:29.835Z,32.53
2022-11-14T04:42:56.572Z,33.53
2022-11-14T04:45:23.384Z,32.05
2022-11-14T04:47:50.170Z,31.77
2022-11-14T04:50:17.207Z,32.70
2022-11-14T04:52:44.584Z,29.58
2022-11-14T04:55:11.324Z,31.13
2022-11-14T04:57:38.094Z,34.90
2022-11-14T05:00:05.809Z,34.28
2022-11-14T05:02:33.341Z,42.80
2022-11-14T05:05:00.047Z,27.15
2022-11-14T05:07:26.934Z,34.92
2022-11-14T05:09:53.761Z,35.05
2022-11-14T05:12:20.508Z,32.88
2022-11-14T05:14:47.320Z,33.50
2022-11-14T05:17:14.112Z,31.58
2022-11-14T05:19:40.887Z,32.40
2022-11-14T05:22:07.630Z,34.58
2022-11-14T05:24:34.350Z,38.55
2022-11-14T05:27:01.101Z,37.67
2022-11-14T05:29:27.848Z,40.35
2022-11-14T05:31:54.638Z,35.97
2022-11-14T05:34:21.452Z,37.85
2022-11-14T05:36:48.171Z,41.10
2022-11-14T05:39:15.978Z,43.83
2022-11-14T05:41:42.789Z,36.08
2022-11-14T05:44:09.617Z,36.08
2022-11-14T05:46:36.459Z,44.88
2022-11-14T05:49:03.304Z,39.72
2022-11-14T05:51:30.076Z,39.25
2022-11-14T05:53:56.888Z,41.63
2022-11-14T05:56:23.694Z,37.38
2022-11-14T05:58:50.394Z,35.33
2022-11-14T06:01:19.042Z,37.92
2022-11-14T06:03:47.612Z,38.22
2022-11-14T06:06:18.217Z,34.90
2022-11-14T06:08:44.987Z,30.42
2022-11-14T06:11:14.528Z,33.67
2022-11-14T06:13:41.770Z,33.05
2022-11-14T06:16:15.100Z,33.78
2022-11-14T06:18:43.314Z,45.25
2022-11-14T06:21:18.027Z,39.78
2022-11-14T06:23:46.056Z,38.80
2022-11-14T06:26:30.516Z,42.92
2022-11-14T06:28:58.263Z,41.85
2022-11-14T06:31:26.307Z,38.80
2022-11-14T06:33:53.420Z,42.50
2022-11-14T06:36:20.215Z,45.95
2022-11-14T06:38:46.964Z,39.38
2022-11-14T06:41:18.889Z,36.88
2022-11-14T06:43:48.737Z,37.78
2022-11-14T06:46:18.184Z,34.50
2022-11-14T06:48:46.827Z,33.13
2022-11-14T06:51:15.119Z,32.25
2022-11-14T06:53:42.443Z,38.47
2022-11-14T06:56:14.552Z,36.38
2022-11-14T06:58:44.503Z,39.50
2022-11-14T07:01:22.889Z,40.63
2022-11-14T07:03:50.436Z,36.60
2022-11-14T07:06:20.188Z,34.63
2022-11-14T07:08:47.223Z,34.78
2022-11-14T07:11:23.259Z,36.13
2022-11-14T07:13:58.330Z,37.60
2022-11-14T07:16:30.551Z,40.95
2022-11-14T07:19:00.747Z,35.20
2022-11-14T07:21:29.462Z,36.03
2022-11-14T07:23:57.222Z,34.50
2022-11-14T07:26:24.221Z,38.45
2022-11-14T07:28:54.463Z,35.67
2022-11-14T07:31:24.212Z,34.45
2022-11-14T07:33:51.293Z,36.60
2022-11-14T07:36:18.081Z,32.13
2022-11-14T07:38:44.952Z,33.83
2022-11-14T07:41:14.141Z,35.38
2022-11-14T07:43:41.392Z,42.53
2022-11-14T07:46:11.986Z,33.00
2022-11-14T07:48:39.316Z,33.83
2022-11-14T07:51:07.932Z,34.58
2022-11-14T07:53:35.161Z,33.05
2022-11-14T07:56:05.064Z,34.60
2022-11-14T07:58:32.146Z,32.38
2022-11-14T08:01:02.692Z,38.90
2022-11-14T08:03:30.004Z,40.95
2022-11-14T08:06:04.824Z,38.92
2022-11-14T08:08:32.107Z,42.58
2022-11-14T08:11:00.583Z,40.15
2022-11-14T08:13:32.989Z,38.15
2022-11-14T08:16:12.463Z,37.72
2022-11-14T08:18:40.462Z,31.70
2022-11-14T08:21:07.640Z,33.42
2022-11-14T08:23:34.376Z,30.42
2022-11-14T08:26:01.174Z,32.80
2022-11-14T08:28:28.996Z,36.17
2022-11-14T08:31:01.600Z,34.55
2022-11-14T08:33:29.751Z,33.20
2022-11-14T08:36:00.820Z,35.90
2022-11-14T08:38:28.823Z,36.25
2022-11-14T08:40:59.135Z,32.05
2022-11-14T08:43:26.195Z,32.00
2022-11-14T08:45:53.102Z,33.33
2022-11-14T08:48:19.816Z,34.90
2022-11-14T08:50:46.561Z,40.50
2022-11-14T08:53:13.291Z,40.80
2022-11-14T08:55:44.865Z,37.58
2022-11-14T08:58:11.809Z,40.25
2022-11-14T09:00:39.464Z,43.22
2022-11-14T09:03:10.678Z,52.22
2022-11-14T09:05:37.723Z,47.85
2022-11-14T09:08:05.032Z,43.22
2022-11-14T09:10:32.181Z,40.45
2022-11-14T09:13:00.248Z,37.80
2022-11-14T09:15:30.146Z,35.58
2022-11-14T09:17:58.686Z,33.08
2022-11-14T09:20:31.642Z,32.03
2022-11-14T09:23:00.070Z,35.53
2022-11-14T09:25:27.479Z,31.60
2022-11-14T09:27:55.995Z,30.83
2022-11-14T09:30:23.723Z,31.40
2022-11-14T09:32:51.176Z,29.00
2022-11-14T09:35:18.821Z,29.17
2022-11-14T09:37:47.651Z,29.42
2022-11-14T09:40:14.589Z,31.80
2022-11-14T09:42:50.153Z,27.77
2022-11-14T09:45:17.340Z,26.33
2022-11-14T09:47:52.731Z,27.30
2022-11-14T09:50:26.302Z,27.17
2022-11-14T09:55:24.218Z,27.67
2022-11-14T09:57:52.284Z,26.70
2022-11-14T10:00:22.500Z,26.25
2022-11-14T10:02:55.603Z,24.35
2022-11-14T10:05:32.880Z,23.30
2022-11-14T10:08:23.337Z,23.10
2022-11-14T10:10:54.549Z,19.73
2022-11-14T10:13:47.099Z,24.77
2022-11-14T10:16:44.526Z,23.67
2022-11-14T10:19:20.616Z,23.90
2022-11-14T10:22:02.346Z,22.10
2022-11-14T10:24:38.491Z,22.25
2022-11-14T10:27:20.133Z,22.30
2022-11-14T10:30:11.593Z,22.15
2022-11-14T10:32:57.383Z,20.23
2022-11-14T10:35:33.834Z,21.58
2022-11-14T10:38:29.980Z,24.35
2022-11-14T10:41:04.657Z,22.95
2022-11-14T10:43:46.703Z,19.75
2022-11-14T10:46:45.027Z,20.63
2022-11-14T10:49:24.576Z,20.00
2022-11-14T10:51:53.861Z,19.50
2022-11-14T10:54:41.680Z,18.35
2022-11-14T10:57:19.934Z,17.60
2022-11-14T10:59:47.438Z,17.30
2022-11-14T11:02:14.592Z,17.83
2022-11-14T11:04:43.641Z,14.85
2022-11-14T11:07:30.633Z,18.15
2022-11-14T11:10:20.463Z,13.88
2022-11-14T11:12:50.366Z,16.00
2022-11-14T11:15:23.141Z,14.93
2022-11-14T11:18:01.029Z,13.82
2022-11-14T11:20:40.984Z,12.98
2022-11-14T11:23:26.468Z,15.15
2022-11-14T11:26:09.407Z,13.45
2022-11-14T11:28:36.985Z,15.70
2022-11-14T11:31:06.879Z,16.77
2022-11-14T11:33:35.723Z,14.35
2022-11-14T11:36:18.269Z,17.08
2022-11-14T11:38:47.931Z,14.15
2022-11-14T11:44:16.496Z,13.15
2022-11-14T11:46:57.546Z,13.20
2022-11-14T11:49:30.513Z,16.40
2022-11-14T11:52:04.737Z,20.02
2022-11-14T11:54:43.186Z,16.50
2022-11-14T11:57:21.176Z,14.88
2022-11-14T11:59:54.107Z,12.30
2022-11-14T12:02:30.781Z,13.45
2022-11-14T12:04:59.059Z,11.90
2022-11-14T12:07:44.780Z,16.10
2022-11-14T12:10:21.880Z,11.65
2022-11-14T12:12:57.731Z,10.65
2022-11-14T12:15:34.421Z,11.77
2022-11-14T12:18:31.989Z,13.15
2022-11-14T12:21:11.814Z,14.27
2022-11-14T12:24:00.310Z,10.40
2022-11-14T12:27:15.285Z,9.57
2022-11-14T12:30:17.988Z,10.20
2022-11-14T12:32:49.496Z,10.13
2022-11-14T12:35:27.294Z,11.52
2022-11-14T12:37:56.279Z,10.80
2022-11-14T12:40:25.777Z,11.98
2022-11-14T12:42:52.932Z,10.85
2022-11-14T12:45:41.380Z,10.02
2022-11-14T12:48:30.924Z,11.95
2022-11-14T12:50:58.836Z,12.27
2022-11-14T12:53:37.647Z,10.85
2022-11-14T12:56:31.708Z,9.00
2022-11-14T12:59:16.984Z,8.27
2022-11-14T13:01:52.648Z,9.80
2022-11-14T13:04:45.936Z,9.18
2022-11-14T13:07:41.222Z,8.93
2022-11-14T13:10:13.894Z,9.30
2022-11-14T13:13:26.835Z,10.20
2022-11-14T13:16:14.365Z,8.45
2022-11-14T13:19:15.904Z,9.55
2022-11-14T13:22:14.406Z,7.07
2022-11-14T13:24:59.392Z,8.88
2022-11-14T13:27:52.098Z,13.00
2022-11-14T13:30:16.839Z,16.50
2022-11-14T13:32:44.571Z,11.85
2022-11-14T13:35:26.071Z,14.32
2022-11-14T13:38:11.549Z,13.80
2022-11-14T13:41:05.622Z,11.05
2022-11-14T13:44:13.611Z,17.02
2022-11-14T13:46:56.905Z,8.45
2022-11-14T13:49:23.672Z,10.33
2022-11-14T13:51:53.637Z,7.90
2022-11-14T13:54:20.815Z,8.70
2022-11-14T13:56:50.998Z,13.63
2022-11-14T13:59:46.244Z,10.13
2022-11-14T14:02:27.769Z,8.20
2022-11-14T14:05:12.650Z,9.98
2022-11-14T14:07:57.540Z,13.13
2022-11-14T14:10:34.622Z,6.65
2022-11-14T14:13:14.392Z,6.18
2022-11-14T14:16:03.921Z,5.63
2022-11-14T14:19:10.188Z,7.05
2022-11-14T14:21:49.427Z,6.25
2022-11-14T14:24:37.524Z,7.43
2022-11-14T14:27:28.890Z,6.43
2022-11-14T14:30:09.502Z,8.75
2022-11-14T14:32:36.320Z,7.40
2022-11-14T14:35:21.853Z,6.88
2022-11-14T14:37:54.259Z,7.00
2022-11-14T14:40:38.839Z,8.05
2022-11-14T14:43:06.491Z,7.07
2022-11-14T14:45:48.977Z,8.55
2022-11-14T14:48:21.651Z,10.55
2022-11-14T14:50:51.140Z,11.70
2022-11-14T14:53:32.849Z,13.63
2022-11-14T14:56:05.750Z,13.05
2022-11-14T14:58:34.946Z,17.27
2022-11-14T15:01:08.823Z,17.88
2022-11-14T15:04:07.895Z,18.92
2022-11-14T15:06:37.889Z,13.88
2022-11-14T15:09:21.306Z,16.23
2022-11-14T15:11:52.026Z,15.38
2022-11-14T15:14:23.030Z,15.10
2022-11-14T15:16:50.963Z,14.85
2022-11-14T15:19:39.773Z,17.92
2022-11-14T15:22:10.770Z,16.17
2022-11-14T15:24:37.580Z,18.08
2022-11-14T15:27:16.204Z,16.63
2022-11-14T15:29:52.949Z,18.17
2022-11-14T15:32:25.081Z,19.05
2022-11-14T15:35:22.485Z,16.65
2022-11-14T15:38:41.951Z,20.45
2022-11-14T15:41:18.769Z,19.65
2022-11-14T15:43:45.430Z,20.27
2022-11-14T15:46:30.716Z,20.50
2022-11-14T15:48:58.093Z,18.45
2022-11-14T15:51:50.559Z,21.70
2022-11-14T15:54:24.782Z,22.13
2022-11-14T15:56:54.266Z,20.88
2022-11-14T15:59:22.664Z,19.10
2022-11-14T16:01:52.874Z,17.08
2022-11-14T16:04:23.062Z,22.13
2022-11-14T16:06:50.178Z,20.35
2022-11-14T16:09:21.129Z,21.10
2022-11-14T16:11:49.100Z,19.67
2022-11-14T16:14:16.306Z,22.30
2022-11-14T16:16:43.165Z,23.55
2022-11-14T16:19:14.016Z,20.48
2022-11-14T16:24:43.601Z,24.02
2022-11-14T16:27:10.363Z,27.15
2022-11-14T16:29:37.078Z,44.80
2022-11-14T16:32:04.674Z,34.22
2022-11-14T16:34:31.967Z,41.33
2022-11-14T16:37:01.802Z,35.60
2022-11-14T16:39:29.492Z,35.78
2022-11-14T16:42:01.810Z,33.13
2022-11-14T16:44:30.021Z,32.90
2022-11-14T16:46:57.322Z,32.60
2022-11-14T16:49:24.748Z,30.00
2022-11-14T16:51:52.330Z,32.60
2022-11-14T16:54:21.185Z,29.20
2022-11-14T16:56:48.427Z,32.25
2022-11-14T16:59:16.298Z,33.40
2022-11-14T17:01:43.769Z,29.13
2022-11-14T17:04:10.681Z,27.33
2022-11-14T17:06:38.350Z,29.90
2022-11-14T17:09:06.862Z,35.72
2022-11-14T17:11:34.484Z,31.88
2022-11-14T17:14:02.317Z,37.03
2022-11-14T17:16:34.020Z,31.40
2022-11-14T17:19:02.781Z,27.45
2022-11-14T17:21:30.182Z,30.17
2022-11-14T17:24:01.289Z,31.80
2022-11-14T17:26:29.635Z,27.60
2022-11-14T17:28:56.491Z,30.90
2022-11-14T17:31:23.686Z,25.25
2022-11-14T17:33:53.566Z,26.33
2022-11-14T17:36:23.362Z,23.00
2022-11-14T17:38:51.327Z,25.85
2022-11-14T17:41:21.136Z,25.27
2022-11-14T17:43:56.633Z,28.48
2022-11-14T17:46:23.784Z,24.25
2022-11-14T17:48:50.619Z,33.60
2022-11-14T17:51:19.147Z,29.27
2022-11-14T17:53:50.357Z,30.33
2022-11-14T17:56:27.934Z,26.25
2022-11-14T17:58:55.299Z,26.17
2022-11-14T18:01:24.472Z,31.23
2022-11-14T18:03:52.202Z,26.60
2022-11-14T18:06:20.856Z,25.38
2022-11-14T18:08:50.913Z,29.17
2022-11-14T18:11:20.330Z,30.25
2022-11-14T18:13:55.063Z,26.17
2022-11-14T18:16:44.501Z,33.15
2022-11-14T18:19:15.455Z,30.13
2022-11-14T18:21:47.953Z,24.92
2022-11-14T18:24:19.524Z,33.20
2022-11-14T18:26:47.675Z,28.85
2022-11-14T18:29:17.802Z,20.55
2022-11-14T18:31:48.416Z,16.85
2022-11-14T18:34:15.955Z,18.33
2022-11-14T18:36:43.328Z,20.40
2022-11-14T18:39:10.157Z,19.65
2022-11-14T18:41:37.023Z,20.00
2022-11-14T18:44:05.517Z,18.27
2022-11-14T18:46:37.534Z,23.52
2022-11-14T18:49:04.624Z,24.17
2022-11-14T18:51:31.854Z,28.17
2022-11-14T18:54:01.359Z,30.27
2022-11-14T18:56:28.527Z,32.95
2022-11-14T18:58:57.006Z,30.13
2022-11-14T19:01:29.913Z,28.73
2022-11-14T19:04:04.116Z,22.13
2022-11-14T19:06:33.192Z,25.10
2022-11-14T19:09:11.388Z,27.92
2022-11-14T19:11:57.571Z,22.67
2022-11-14T19:14:27.843Z,19.35
2022-11-14T19:16:55.425Z,19.65
2022-11-14T19:19:23.715Z,19.90
2022-11-14T19:21:56.106Z,21.48
2022-11-14T19:24:23.392Z,19.77
2022-11-14T19:26:50.277Z,16.27
2022-11-14T19:29:19.578Z,17.02
2022-11-14T19:31:46.690Z,14.90
2022-11-14T19:34:14.993Z,15.32
2022-11-14T19:39:33.053Z,13.52
2022-11-14T19:42:03.183Z,15.15
2022-11-14T19:44:30.253Z,17.67
2022-11-14T19:46:57.341Z,16.77
2022-11-14T19:49:24.221Z,18.55
2022-11-14T19:51:54.340Z,20.08
2022-11-14T19:54:21.610Z,19.92
2022-11-14T19:56:49.519Z,18.30
2022-11-14T19:59:23.191Z,21.10
2022-11-14T20:01:55.536Z,23.17
2022-11-14T20:04:22.959Z,21.42
2022-11-14T20:06:50.355Z,19.05
2022-11-14T20:09:17.667Z,18.77
2022-11-14T20:11:44.651Z,21.48
2022-11-14T20:14:12.926Z,25.60
2022-11-14T20:16:39.962Z,20.70
2022-11-14T20:19:06.996Z,20.17
2022-11-14T20:21:35.268Z,24.77
2022-11-14T20:24:02.366Z,22.05
2022-11-14T20:26:29.670Z,17.05
2022-11-14T20:28:56.560Z,18.25
2022-11-14T20:31:25.868Z,17.75
2022-11-14T20:33:56.430Z,21.40
2022-11-14T20:36:32.056Z,15.38
2022-11-14T20:39:06.203Z,15.68
2022-11-14T20:41:33.901Z,17.98
2022-11-14T20:44:02.298Z,19.95
2022-11-14T20:46:29.656Z,19.42
2022-11-14T20:48:56.977Z,18.65
2022-11-14T20:51:25.555Z,20.60
2022-11-14T20:53:55.377Z,20.00
2022-11-14T20:56:23.148Z,22.38
2022-11-14T20:58:53.185Z,16.05
2022-11-14T21:01:20.795Z,18.15
2022-11-14T21:03:48.472Z,16.05
2022-11-14T21:06:16.717Z,18.33
2022-11-14T21:08:43.763Z,18.50
2022-11-14T21:11:17.972Z,21.17
2022-11-14T21:13:56.489Z,17.98
2022-11-14T21:16:35.276Z,19.20
2022-11-14T21:19:03.023Z,19.20
2022-11-14T21:21:32.782Z,20.50
2022-11-14T21:23:59.562Z,23.13
2022-11-14T21:26:29.145Z,16.70
2022-11-14T21:28:59.062Z,16.10
2022-11-14T21:31:31.461Z,16.23
2022-11-14T21:34:00.227Z,16.40
2022-11-14T21:39:16.720Z,19.13
2022-11-14T21:41:45.963Z,15.30
2022-11-14T21:44:14.614Z,17.10
2022-11-14T21:46:41.496Z,18.52
2022-11-14T21:49:09.182Z,22.30
2022-11-14T21:51:36.072Z,16.70
2022-11-14T21:54:03.047Z,16.88
2022-11-14T21:56:31.953Z,18.45
2022-11-14T21:59:18.363Z,17.20
2022-11-14T22:02:08.481Z,16.23
2022-11-14T22:04:36.115Z,19.35
2022-11-14T22:07:07.846Z,18.33
2022-11-14T22:09:35.202Z,17.73
2022-11-14T22:12:02.175Z,19.65
2022-11-14T22:14:29.477Z,23.73
2022-11-14T22:16:56.437Z,19.45
2022-11-14T22:19:24.279Z,19.33
2022-11-14T22:21:51.404Z,19.75
2022-11-14T22:24:18.231Z,20.40
2022-11-14T22:26:45.290Z,19.65
2022-11-14T22:29:12.070Z,15.25
2022-11-14T22:31:38.818Z,18.35
2022-11-14T22:34:05.998Z,13.57
2022-11-14T22:36:33.397Z,16.70
2022-11-14T22:39:00.142Z,15.93
2022-11-14T22:41:32.643Z,17.90
2022-11-14T22:44:00.494Z,16.52
2022-11-14T22:46:27.791Z,18.50
2022-11-14T22:48:55.049Z,19.63
2022-11-14T22:51:26.716Z,15.23
2022-11-14T22:53:56.289Z,18.02
2022-11-14T22:56:26.388Z,16.70
2022-11-14T22:58:53.101Z,19.70
2022-11-14T23:01:24.610Z,17.10
2022-11-14T23:04:03.185Z,17.70
2022-11-14T23:06:32.128Z,19.17
2022-11-14T23:09:00.016Z,18.60
2022-11-14T23:11:29.624Z,19.83
2022-11-14T23:13:58.299Z,16.85
2022-11-14T23:16:30.890Z,17.83
2022-11-14T23:19:00.471Z,16.15
2022-11-14T23:21:33.640Z,14.48
2022-11-14T23:24:02.775Z,12.98
2022-11-14T23:26:30.570Z,17.42
2022-11-14T23:28:57.295Z,18.55
2022-11-14T23:31:24.905Z,17.60
2022-11-14T23:33:53.740Z,15.73
2022-11-14T23:36:20.776Z,21.35
2022-11-14T23:38:47.665Z,23.10
2022-11-14T23:41:19.780Z,30.17
2022-11-14T23:43:47.167Z,20.08
2022-11-14T23:46:14.545Z,25.33
2022-11-14T23:48:41.603Z,25.20
2022-11-14T23:51:09.454Z,31.92
2022-11-14T23:53:36.410Z,42.25
2022-11-14T23:56:03.609Z,39.47
2022-11-14T23:58:30.787Z,31.17
